sensor_id;sensor_type;location;lat;lon;timestamp;P1;durP1;ratioP1;P2;durP2;ratioP2
42600;SDS011;28229;48.856;9.088;2022-07-23T00:00:48;5.53;;;5.13;;
42600;SDS011;28229;48.856;9.088;2022-07-23T00:03:14;5.10;;;4.70;;
42600;SDS011;28229;48.856;9.088;2022-07-23T00:05:40;5.23;;;4.73;;
42600;SDS011;28229;48.856;9.088;2022-07-23T00:08:06;5.03;;;4.50;;
42600;SDS011;28229;48.856;9.088;2022-07-23T00:10:32;5.20;;;4.80;;
42600;SDS011;28229;48.856;9.088;2022-07-23T00:12:59;4.57;;;4.13;;
42600;SDS011;28229;48.856;9.088;2022-07-23T00:15:25;4.97;;;4.57;;
42600;SDS011;28229;48.856;9.088;2022-07-23T00:17:51;4.87;;;4.37;;
42600;SDS011;28229;48.856;9.088;2022-07-23T00:20:17;5.00;;;4.60;;
42600;SDS011;28229;48.856;9.088;2022-07-23T00:22:53;5.33;;;4.70;;
42600;SDS011;28229;48.856;9.088;2022-07-23T00:25:21;5.00;;;4.43;;
42600;SDS011;28229;48.856;9.088;2022-07-23T00:27:48;4.83;;;4.20;;
42600;SDS011;28229;48.856;9.088;2022-07-23T00:30:14;5.13;;;4.73;;
42600;SDS011;28229;48.856;9.088;2022-07-23T00:32:50;4.90;;;4.50;;
42600;SDS011;28229;48.856;9.088;2022-07-23T00:35:21;4.57;;;4.27;;
42600;SDS011;28229;48.856;9.088;2022-07-23T00:37:48;4.53;;;4.13;;
42600;SDS011;28229;48.856;9.088;2022-07-23T00:40:14;4.60;;;4.20;;
42600;SDS011;28229;48.856;9.088;2022-07-23T00:42:41;4.57;;;4.17;;
42600;SDS011;28229;48.856;9.088;2022-07-23T00:45:07;4.70;;;4.30;;
42600;SDS011;28229;48.856;9.088;2022-07-23T00:47:34;5.30;;;4.80;;
42600;SDS011;28229;48.856;9.088;2022-07-23T00:50:00;4.93;;;4.57;;
42600;SDS011;28229;48.856;9.088;2022-07-23T00:52:26;4.70;;;4.30;;
42600;SDS011;28229;48.856;9.088;2022-07-23T00:54:52;4.50;;;4.20;;
42600;SDS011;28229;48.856;9.088;2022-07-23T00:57:18;4.23;;;3.93;;
42600;SDS011;28229;48.856;9.088;2022-07-23T00:59:44;4.90;;;4.50;;
42600;SDS011;28229;48.856;9.088;2022-07-23T01:02:10;5.10;;;4.70;;
42600;SDS011;28229;48.856;9.088;2022-07-23T01:04:36;5.10;;;4.70;;
42600;SDS011;28229;48.856;9.088;2022-07-23T01:07:02;4.90;;;4.50;;
42600;SDS011;28229;48.856;9.088;2022-07-23T01:09:28;5.00;;;4.60;;
42600;SDS011;28229;48.856;9.088;2022-07-23T01:11:55;5.33;;;4.93;;
42600;SDS011;28229;48.856;9.088;2022-07-23T01:14:22;4.70;;;4.40;;
42600;SDS011;28229;48.856;9.088;2022-07-23T01:16:48;4.50;;;4.10;;
42600;SDS011;28229;48.856;9.088;2022-07-23T01:19:15;4.90;;;4.47;;
42600;SDS011;28229;48.856;9.088;2022-07-23T01:21:43;5.17;;;4.77;;
42600;SDS011;28229;48.856;9.088;2022-07-23T01:24:11;5.00;;;4.60;;
42600;SDS011;28229;48.856;9.088;2022-07-23T01:26:46;4.73;;;4.43;;
42600;SDS011;28229;48.856;9.088;2022-07-23T01:29:13;5.30;;;4.80;;
42600;SDS011;28229;48.856;9.088;2022-07-23T01:31:41;5.00;;;4.60;;
42600;SDS011;28229;48.856;9.088;2022-07-23T01:34:07;5.33;;;4.77;;
42600;SDS011;28229;48.856;9.088;2022-07-23T01:36:34;4.90;;;4.60;;
42600;SDS011;28229;48.856;9.088;2022-07-23T01:39:00;4.83;;;4.47;;
42600;SDS011;28229;48.856;9.088;2022-07-23T01:41:28;4.57;;;4.27;;
42600;SDS011;28229;48.856;9.088;2022-07-23T01:43:53;5.27;;;4.83;;
42600;SDS011;28229;48.856;9.088;2022-07-23T01:46:19;4.67;;;4.27;;
42600;SDS011;28229;48.856;9.088;2022-07-23T01:48:48;4.60;;;4.30;;
42600;SDS011;28229;48.856;9.088;2022-07-23T01:51:34;5.00;;;4.60;;
42600;SDS011;28229;48.856;9.088;2022-07-23T01:54:05;4.80;;;4.50;;
42600;SDS011;28229;48.856;9.088;2022-07-23T01:56:31;4.97;;;4.57;;
42600;SDS011;28229;48.856;9.088;2022-07-23T01:58:57;4.87;;;4.47;;
42600;SDS011;28229;48.856;9.088;2022-07-23T02:01:22;5.17;;;4.70;;
42600;SDS011;28229;48.856;9.088;2022-07-23T02:03:48;5.17;;;4.67;;
42600;SDS011;28229;48.856;9.088;2022-07-23T02:06:14;4.93;;;4.53;;
42600;SDS011;28229;48.856;9.088;2022-07-23T02:08:40;5.07;;;4.70;;
42600;SDS011;28229;48.856;9.088;2022-07-23T02:11:06;5.63;;;5.13;;
42600;SDS011;28229;48.856;9.088;2022-07-23T02:13:32;5.40;;;4.90;;
42600;SDS011;28229;48.856;9.088;2022-07-23T02:15:59;5.70;;;5.20;;
42600;SDS011;28229;48.856;9.088;2022-07-23T02:18:25;5.03;;;4.63;;
42600;SDS011;28229;48.856;9.088;2022-07-23T02:20:51;5.20;;;4.77;;
42600;SDS011;28229;48.856;9.088;2022-07-23T02:23:16;5.63;;;5.13;;
42600;SDS011;28229;48.856;9.088;2022-07-23T02:25:42;4.83;;;4.43;;
42600;SDS011;28229;48.856;9.088;2022-07-23T02:28:09;4.47;;;4.17;;
42600;SDS011;28229;48.856;9.088;2022-07-23T02:30:35;5.20;;;4.70;;
42600;SDS011;28229;48.856;9.088;2022-07-23T02:33:03;4.97;;;4.67;;
42600;SDS011;28229;48.856;9.088;2022-07-23T02:35:29;5.10;;;4.63;;
42600;SDS011;28229;48.856;9.088;2022-07-23T02:37:57;5.33;;;4.83;;
42600;SDS011;28229;48.856;9.088;2022-07-23T02:40:23;5.40;;;4.80;;
42600;SDS011;28229;48.856;9.088;2022-07-23T02:42:49;5.17;;;4.77;;
42600;SDS011;28229;48.856;9.088;2022-07-23T02:45:15;5.47;;;4.97;;
42600;SDS011;28229;48.856;9.088;2022-07-23T02:47:41;5.67;;;5.00;;
42600;SDS011;28229;48.856;9.088;2022-07-23T02:50:07;5.37;;;4.97;;
42600;SDS011;28229;48.856;9.088;2022-07-23T02:52:33;5.73;;;5.27;;
42600;SDS011;28229;48.856;9.088;2022-07-23T02:55:01;6.13;;;5.53;;
42600;SDS011;28229;48.856;9.088;2022-07-23T02:57:27;5.50;;;5.00;;
42600;SDS011;28229;48.856;9.088;2022-07-23T02:59:53;5.53;;;5.13;;
42600;SDS011;28229;48.856;9.088;2022-07-23T03:02:19;6.17;;;5.67;;
42600;SDS011;28229;48.856;9.088;2022-07-23T03:04:45;6.10;;;5.50;;
42600;SDS011;28229;48.856;9.088;2022-07-23T03:07:11;6.13;;;5.63;;
42600;SDS011;28229;48.856;9.088;2022-07-23T03:09:37;5.27;;;4.87;;
42600;SDS011;28229;48.856;9.088;2022-07-23T03:12:03;5.67;;;5.27;;
42600;SDS011;28229;48.856;9.088;2022-07-23T03:14:30;6.20;;;5.60;;
42600;SDS011;28229;48.856;9.088;2022-07-23T03:16:56;5.60;;;5.10;;
42600;SDS011;28229;48.856;9.088;2022-07-23T03:19:22;5.50;;;5.10;;
42600;SDS011;28229;48.856;9.088;2022-07-23T03:21:47;5.60;;;5.20;;
42600;SDS011;28229;48.856;9.088;2022-07-23T03:24:13;6.53;;;5.53;;
42600;SDS011;28229;48.856;9.088;2022-07-23T03:26:39;5.50;;;5.10;;
42600;SDS011;28229;48.856;9.088;2022-07-23T03:29:05;5.60;;;5.20;;
42600;SDS011;28229;48.856;9.088;2022-07-23T03:31:31;5.30;;;4.90;;
42600;SDS011;28229;48.856;9.088;2022-07-23T03:33:57;5.47;;;5.07;;
42600;SDS011;28229;48.856;9.088;2022-07-23T03:36:24;5.30;;;4.80;;
42600;SDS011;28229;48.856;9.088;2022-07-23T03:38:52;5.20;;;4.80;;
42600;SDS011;28229;48.856;9.088;2022-07-23T03:41:19;5.70;;;5.20;;
42600;SDS011;28229;48.856;9.088;2022-07-23T03:43:46;5.10;;;4.60;;
42600;SDS011;28229;48.856;9.088;2022-07-23T03:46:12;5.20;;;4.80;;
42600;SDS011;28229;48.856;9.088;2022-07-23T03:48:39;5.43;;;5.03;;
42600;SDS011;28229;48.856;9.088;2022-07-23T03:51:04;5.37;;;4.87;;
42600;SDS011;28229;48.856;9.088;2022-07-23T03:53:31;5.33;;;4.93;;
42600;SDS011;28229;48.856;9.088;2022-07-23T03:55:57;5.83;;;5.23;;
42600;SDS011;28229;48.856;9.088;2022-07-23T03:58:23;5.60;;;5.20;;
42600;SDS011;28229;48.856;9.088;2022-07-23T04:00:49;5.50;;;5.10;;
42600;SDS011;28229;48.856;9.088;2022-07-23T04:03:16;5.23;;;4.73;;
42600;SDS011;28229;48.856;9.088;2022-07-23T04:05:42;5.63;;;5.13;;
42600;SDS011;28229;48.856;9.088;2022-07-23T04:08:12;5.37;;;4.97;;
42600;SDS011;28229;48.856;9.088;2022-07-23T04:10:42;5.20;;;4.70;;
42600;SDS011;28229;48.856;9.088;2022-07-23T04:13:08;5.83;;;5.43;;
42600;SDS011;28229;48.856;9.088;2022-07-23T04:15:34;5.13;;;4.80;;
42600;SDS011;28229;48.856;9.088;2022-07-23T04:18:00;8.70;;;5.10;;
42600;SDS011;28229;48.856;9.088;2022-07-23T04:20:35;5.13;;;4.73;;
42600;SDS011;28229;48.856;9.088;2022-07-23T04:23:02;6.00;;;5.50;;
42600;SDS011;28229;48.856;9.088;2022-07-23T04:25:28;5.50;;;5.00;;
42600;SDS011;28229;48.856;9.088;2022-07-23T04:27:54;5.30;;;4.80;;
42600;SDS011;28229;48.856;9.088;2022-07-23T04:30:20;5.23;;;4.70;;
42600;SDS011;28229;48.856;9.088;2022-07-23T04:32:46;5.10;;;4.70;;
42600;SDS011;28229;48.856;9.088;2022-07-23T04:35:18;5.30;;;4.90;;
42600;SDS011;28229;48.856;9.088;2022-07-23T04:37:44;5.50;;;5.00;;
42600;SDS011;28229;48.856;9.088;2022-07-23T04:40:11;5.30;;;4.90;;
42600;SDS011;28229;48.856;9.088;2022-07-23T04:42:37;5.77;;;5.27;;
42600;SDS011;28229;48.856;9.088;2022-07-23T04:45:03;5.43;;;4.93;;
42600;SDS011;28229;48.856;9.088;2022-07-23T04:47:31;5.43;;;4.90;;
42600;SDS011;28229;48.856;9.088;2022-07-23T04:49:57;5.63;;;5.17;;
42600;SDS011;28229;48.856;9.088;2022-07-23T04:52:24;5.60;;;4.90;;
42600;SDS011;28229;48.856;9.088;2022-07-23T04:54:50;5.67;;;5.17;;
42600;SDS011;28229;48.856;9.088;2022-07-23T04:57:16;5.20;;;4.80;;
42600;SDS011;28229;48.856;9.088;2022-07-23T04:59:42;6.50;;;5.53;;
42600;SDS011;28229;48.856;9.088;2022-07-23T05:02:09;6.13;;;5.53;;
42600;SDS011;28229;48.856;9.088;2022-07-23T05:04:35;5.50;;;5.10;;
42600;SDS011;28229;48.856;9.088;2022-07-23T05:07:02;6.20;;;5.70;;
42600;SDS011;28229;48.856;9.088;2022-07-23T05:09:28;5.50;;;5.10;;
42600;SDS011;28229;48.856;9.088;2022-07-23T05:11:55;5.70;;;5.20;;
42600;SDS011;28229;48.856;9.088;2022-07-23T05:14:21;5.80;;;5.30;;
42600;SDS011;28229;48.856;9.088;2022-07-23T05:16:50;5.53;;;5.13;;
42600;SDS011;28229;48.856;9.088;2022-07-23T05:19:21;5.13;;;4.73;;
42600;SDS011;28229;48.856;9.088;2022-07-23T05:21:47;5.60;;;5.20;;
42600;SDS011;28229;48.856;9.088;2022-07-23T05:24:13;5.80;;;5.00;;
42600;SDS011;28229;48.856;9.088;2022-07-23T05:26:39;5.77;;;5.23;;
42600;SDS011;28229;48.856;9.088;2022-07-23T05:29:05;5.50;;;5.10;;
42600;SDS011;28229;48.856;9.088;2022-07-23T05:31:31;5.53;;;5.03;;
42600;SDS011;28229;48.856;9.088;2022-07-23T05:33:57;5.70;;;5.20;;
42600;SDS011;28229;48.856;9.088;2022-07-23T05:36:24;5.90;;;5.40;;
42600;SDS011;28229;48.856;9.088;2022-07-23T05:38:53;5.73;;;5.23;;
42600;SDS011;28229;48.856;9.088;2022-07-23T05:41:19;5.40;;;4.90;;
42600;SDS011;28229;48.856;9.088;2022-07-23T05:43:45;5.50;;;5.10;;
42600;SDS011;28229;48.856;9.088;2022-07-23T05:46:11;5.23;;;4.83;;
42600;SDS011;28229;48.856;9.088;2022-07-23T05:48:40;5.60;;;5.10;;
42600;SDS011;28229;48.856;9.088;2022-07-23T05:51:27;5.70;;;5.20;;
42600;SDS011;28229;48.856;9.088;2022-07-23T05:53:53;5.83;;;5.33;;
42600;SDS011;28229;48.856;9.088;2022-07-23T05:56:20;5.67;;;5.17;;
42600;SDS011;28229;48.856;9.088;2022-07-23T05:58:46;5.97;;;5.50;;
42600;SDS011;28229;48.856;9.088;2022-07-23T06:01:14;6.40;;;5.87;;
42600;SDS011;28229;48.856;9.088;2022-07-23T06:03:49;5.53;;;5.03;;
42600;SDS011;28229;48.856;9.088;2022-07-23T06:06:15;5.30;;;4.87;;
42600;SDS011;28229;48.856;9.088;2022-07-23T06:08:41;5.83;;;5.33;;
42600;SDS011;28229;48.856;9.088;2022-07-23T06:11:08;5.57;;;5.13;;
42600;SDS011;28229;48.856;9.088;2022-07-23T06:13:35;5.90;;;5.30;;
42600;SDS011;28229;48.856;9.088;2022-07-23T06:16:01;5.67;;;5.17;;
42600;SDS011;28229;48.856;9.088;2022-07-23T06:18:27;5.53;;;5.10;;
42600;SDS011;28229;48.856;9.088;2022-07-23T06:20:53;6.93;;;5.07;;
42600;SDS011;28229;48.856;9.088;2022-07-23T06:23:20;5.83;;;5.33;;
42600;SDS011;28229;48.856;9.088;2022-07-23T06:25:46;5.93;;;5.20;;
42600;SDS011;28229;48.856;9.088;2022-07-23T06:28:12;6.30;;;5.30;;
42600;SDS011;28229;48.856;9.088;2022-07-23T06:30:41;5.93;;;5.40;;
42600;SDS011;28229;48.856;9.088;2022-07-23T06:33:07;5.63;;;5.13;;
42600;SDS011;28229;48.856;9.088;2022-07-23T06:35:33;5.60;;;5.03;;
42600;SDS011;28229;48.856;9.088;2022-07-23T06:37:59;6.30;;;5.67;;
42600;SDS011;28229;48.856;9.088;2022-07-23T06:40:25;5.67;;;5.13;;
42600;SDS011;28229;48.856;9.088;2022-07-23T06:42:51;5.87;;;5.27;;
42600;SDS011;28229;48.856;9.088;2022-07-23T06:45:21;5.77;;;5.27;;
42600;SDS011;28229;48.856;9.088;2022-07-23T06:47:47;5.50;;;5.10;;
42600;SDS011;28229;48.856;9.088;2022-07-23T06:50:13;6.27;;;5.67;;
42600;SDS011;28229;48.856;9.088;2022-07-23T06:52:41;6.63;;;6.13;;
42600;SDS011;28229;48.856;9.088;2022-07-23T06:55:07;6.43;;;5.83;;
42600;SDS011;28229;48.856;9.088;2022-07-23T06:57:33;5.80;;;5.40;;
42600;SDS011;28229;48.856;9.088;2022-07-23T06:59:59;6.63;;;6.10;;
42600;SDS011;28229;48.856;9.088;2022-07-23T07:02:25;6.53;;;5.97;;
42600;SDS011;28229;48.856;9.088;2022-07-23T07:04:50;7.60;;;6.10;;
42600;SDS011;28229;48.856;9.088;2022-07-23T07:07:16;7.30;;;5.80;;
42600;SDS011;28229;48.856;9.088;2022-07-23T07:09:42;7.63;;;6.47;;
42600;SDS011;28229;48.856;9.088;2022-07-23T07:12:08;6.83;;;6.33;;
42600;SDS011;28229;48.856;9.088;2022-07-23T07:14:34;6.87;;;6.13;;
42600;SDS011;28229;48.856;9.088;2022-07-23T07:17:00;6.90;;;6.30;;
42600;SDS011;28229;48.856;9.088;2022-07-23T07:19:25;7.30;;;6.60;;
42600;SDS011;28229;48.856;9.088;2022-07-23T07:21:51;6.80;;;6.10;;
42600;SDS011;28229;48.856;9.088;2022-07-23T07:24:18;6.93;;;6.33;;
42600;SDS011;28229;48.856;9.088;2022-07-23T07:26:43;6.30;;;5.80;;
42600;SDS011;28229;48.856;9.088;2022-07-23T07:29:09;7.47;;;6.77;;
42600;SDS011;28229;48.856;9.088;2022-07-23T07:31:35;7.10;;;6.50;;
42600;SDS011;28229;48.856;9.088;2022-07-23T07:34:01;8.30;;;6.73;;
42600;SDS011;28229;48.856;9.088;2022-07-23T07:36:27;7.30;;;6.60;;
42600;SDS011;28229;48.856;9.088;2022-07-23T07:38:53;7.03;;;6.30;;
42600;SDS011;28229;48.856;9.088;2022-07-23T07:41:19;7.27;;;6.57;;
42600;SDS011;28229;48.856;9.088;2022-07-23T07:44:02;7.10;;;6.47;;
42600;SDS011;28229;48.856;9.088;2022-07-23T07:46:29;7.43;;;6.73;;
42600;SDS011;28229;48.856;9.088;2022-07-23T07:48:55;7.40;;;6.50;;
42600;SDS011;28229;48.856;9.088;2022-07-23T07:51:21;7.37;;;6.73;;
42600;SDS011;28229;48.856;9.088;2022-07-23T07:53:47;6.70;;;6.20;;
42600;SDS011;28229;48.856;9.088;2022-07-23T07:56:13;6.93;;;6.33;;
42600;SDS011;28229;48.856;9.088;2022-07-23T07:58:39;7.10;;;6.50;;
42600;SDS011;28229;48.856;9.088;2022-07-23T08:01:05;6.60;;;6.10;;
42600;SDS011;28229;48.856;9.088;2022-07-23T08:03:30;6.50;;;5.90;;
42600;SDS011;28229;48.856;9.088;2022-07-23T08:05:56;8.00;;;7.30;;
42600;SDS011;28229;48.856;9.088;2022-07-23T08:08:22;7.20;;;6.50;;
42600;SDS011;28229;48.856;9.088;2022-07-23T08:10:48;10.90;;;9.80;;
42600;SDS011;28229;48.856;9.088;2022-07-23T08:13:14;9.10;;;8.30;;
42600;SDS011;28229;48.856;9.088;2022-07-23T08:15:41;7.27;;;6.67;;
42600;SDS011;28229;48.856;9.088;2022-07-23T08:18:09;12.33;;;11.13;;
42600;SDS011;28229;48.856;9.088;2022-07-23T08:20:35;13.33;;;12.07;;
42600;SDS011;28229;48.856;9.088;2022-07-23T08:23:04;7.70;;;7.10;;
42600;SDS011;28229;48.856;9.088;2022-07-23T08:25:33;6.70;;;6.20;;
42600;SDS011;28229;48.856;9.088;2022-07-23T08:28:01;6.83;;;6.33;;
42600;SDS011;28229;48.856;9.088;2022-07-23T08:30:29;6.30;;;5.70;;
42600;SDS011;28229;48.856;9.088;2022-07-23T08:32:57;6.50;;;5.90;;
42600;SDS011;28229;48.856;9.088;2022-07-23T08:35:34;6.87;;;6.37;;
42600;SDS011;28229;48.856;9.088;2022-07-23T08:38:03;6.20;;;5.70;;
42600;SDS011;28229;48.856;9.088;2022-07-23T08:40:31;6.77;;;5.73;;
42600;SDS011;28229;48.856;9.088;2022-07-23T08:42:59;5.53;;;5.13;;
42600;SDS011;28229;48.856;9.088;2022-07-23T08:45:29;5.83;;;5.30;;
42600;SDS011;28229;48.856;9.088;2022-07-23T08:47:56;5.43;;;4.93;;
42600;SDS011;28229;48.856;9.088;2022-07-23T08:50:26;5.40;;;5.00;;
42600;SDS011;28229;48.856;9.088;2022-07-23T08:52:52;5.63;;;5.20;;
42600;SDS011;28229;48.856;9.088;2022-07-23T08:55:19;6.57;;;5.77;;
42600;SDS011;28229;48.856;9.088;2022-07-23T08:57:49;6.00;;;5.50;;
42600;SDS011;28229;48.856;9.088;2022-07-23T09:00:18;9.20;;;8.30;;
42600;SDS011;28229;48.856;9.088;2022-07-23T09:02:45;8.53;;;7.73;;
42600;SDS011;28229;48.856;9.088;2022-07-23T09:05:12;8.67;;;7.83;;
42600;SDS011;28229;48.856;9.088;2022-07-23T09:10:36;6.10;;;5.60;;
42600;SDS011;28229;48.856;9.088;2022-07-23T09:13:36;6.00;;;5.53;;
42600;SDS011;28229;48.856;9.088;2022-07-23T09:18:37;5.43;;;4.93;;
42600;SDS011;28229;48.856;9.088;2022-07-23T09:26:31;5.28;;;4.93;;
42600;SDS011;28229;48.856;9.088;2022-07-23T09:29:14;5.53;;;5.07;;
42600;SDS011;28229;48.856;9.088;2022-07-23T09:31:49;5.28;;;4.88;;
42600;SDS011;28229;48.856;9.088;2022-07-23T09:34:22;5.60;;;5.10;;
42600;SDS011;28229;48.856;9.088;2022-07-23T09:36:53;5.35;;;4.85;;
42600;SDS011;28229;48.856;9.088;2022-07-23T09:39:39;20.35;;;8.85;;
42600;SDS011;28229;48.856;9.088;2022-07-23T09:42:39;11.82;;;6.18;;
42600;SDS011;28229;48.856;9.088;2022-07-23T09:45:10;8.88;;;5.75;;
42600;SDS011;28229;48.856;9.088;2022-07-23T09:47:46;5.47;;;5.05;;
42600;SDS011;28229;48.856;9.088;2022-07-23T09:50:12;5.40;;;4.90;;
42600;SDS011;28229;48.856;9.088;2022-07-23T09:52:44;5.07;;;4.75;;
42600;SDS011;28229;48.856;9.088;2022-07-23T09:55:15;5.45;;;4.95;;
42600;SDS011;28229;48.856;9.088;2022-07-23T09:57:42;5.38;;;4.97;;
42600;SDS011;28229;48.856;9.088;2022-07-23T10:00:11;5.65;;;5.18;;
42600;SDS011;28229;48.856;9.088;2022-07-23T10:02:38;5.38;;;4.90;;
42600;SDS011;28229;48.856;9.088;2022-07-23T10:05:26;5.40;;;4.90;;
42600;SDS011;28229;48.856;9.088;2022-07-23T10:08:01;5.10;;;4.68;;
42600;SDS011;28229;48.856;9.088;2022-07-23T10:10:47;5.10;;;4.70;;
42600;SDS011;28229;48.856;9.088;2022-07-23T10:13:38;5.30;;;4.90;;
42600;SDS011;28229;48.856;9.088;2022-07-23T10:16:35;6.55;;;4.93;;
42600;SDS011;28229;48.856;9.088;2022-07-23T10:19:02;4.75;;;4.35;;
42600;SDS011;28229;48.856;9.088;2022-07-23T10:21:42;5.40;;;4.90;;
42600;SDS011;28229;48.856;9.088;2022-07-23T10:24:21;5.07;;;4.68;;
42600;SDS011;28229;48.856;9.088;2022-07-23T10:29:47;5.68;;;5.28;;
42600;SDS011;28229;48.856;9.088;2022-07-23T10:37:45;4.85;;;4.47;;
42600;SDS011;28229;48.856;9.088;2022-07-23T10:42:46;4.93;;;4.60;;
42600;SDS011;28229;48.856;9.088;2022-07-23T10:50:44;4.57;;;4.28;;
42600;SDS011;28229;48.856;9.088;2022-07-23T10:53:53;4.93;;;4.63;;
42600;SDS011;28229;48.856;9.088;2022-07-23T10:56:17;5.43;;;5.00;;
42600;SDS011;28229;48.856;9.088;2022-07-23T10:59:04;5.03;;;4.65;;
42600;SDS011;28229;48.856;9.088;2022-07-23T11:04:03;4.95;;;4.65;;
42600;SDS011;28229;48.856;9.088;2022-07-23T11:07:14;4.82;;;4.50;;
42600;SDS011;28229;48.856;9.088;2022-07-23T11:09:28;4.97;;;4.60;;
42600;SDS011;28229;48.856;9.088;2022-07-23T11:17:35;12.40;;;6.60;;
42600;SDS011;28229;48.856;9.088;2022-07-23T11:22:38;5.20;;;4.80;;
42600;SDS011;28229;48.856;9.088;2022-07-23T11:25:05;5.40;;;5.00;;
42600;SDS011;28229;48.856;9.088;2022-07-23T11:27:43;5.13;;;4.72;;
42600;SDS011;28229;48.856;9.088;2022-07-23T11:30:36;5.40;;;4.93;;
42600;SDS011;28229;48.856;9.088;2022-07-23T11:35:38;5.45;;;4.97;;
42600;SDS011;28229;48.856;9.088;2022-07-23T11:40:34;5.28;;;4.88;;
42600;SDS011;28229;48.856;9.088;2022-07-23T11:43:05;5.72;;;5.32;;
42600;SDS011;28229;48.856;9.088;2022-07-23T11:45:39;5.07;;;4.68;;
42600;SDS011;28229;48.856;9.088;2022-07-23T11:48:07;5.68;;;5.18;;
42600;SDS011;28229;48.856;9.088;2022-07-23T11:50:35;5.50;;;5.10;;
42600;SDS011;28229;48.856;9.088;2022-07-23T11:53:02;5.80;;;5.25;;
42600;SDS011;28229;48.856;9.088;2022-07-23T11:55:28;5.20;;;4.80;;
42600;SDS011;28229;48.856;9.088;2022-07-23T11:57:54;5.35;;;5.00;;
42600;SDS011;28229;48.856;9.088;2022-07-23T12:00:22;5.53;;;4.75;;
42600;SDS011;28229;48.856;9.088;2022-07-23T12:02:55;5.57;;;5.10;;
42600;SDS011;28229;48.856;9.088;2022-07-23T12:05:29;5.68;;;5.18;;
42600;SDS011;28229;48.856;9.088;2022-07-23T12:07:57;5.75;;;5.30;;
42600;SDS011;28229;48.856;9.088;2022-07-23T12:10:25;5.72;;;5.22;;
42600;SDS011;28229;48.856;9.088;2022-07-23T12:12:55;5.78;;;5.38;;
42600;SDS011;28229;48.856;9.088;2022-07-23T12:15:24;5.90;;;5.50;;
42600;SDS011;28229;48.856;9.088;2022-07-23T12:17:57;5.45;;;4.95;;
42600;SDS011;28229;48.856;9.088;2022-07-23T12:20:27;5.95;;;5.55;;
42600;SDS011;28229;48.856;9.088;2022-07-23T12:22:56;6.32;;;5.80;;
42600;SDS011;28229;48.856;9.088;2022-07-23T12:25:27;5.78;;;5.25;;
42600;SDS011;28229;48.856;9.088;2022-07-23T12:28:12;6.15;;;5.55;;
42600;SDS011;28229;48.856;9.088;2022-07-23T12:30:40;5.60;;;5.20;;
42600;SDS011;28229;48.856;9.088;2022-07-23T12:33:09;6.00;;;5.60;;
42600;SDS011;28229;48.856;9.088;2022-07-23T12:38:04;6.40;;;5.90;;
42600;SDS011;28229;48.856;9.088;2022-07-23T12:40:33;5.85;;;5.40;;
42600;SDS011;28229;48.856;9.088;2022-07-23T12:43:09;5.82;;;5.38;;
42600;SDS011;28229;48.856;9.088;2022-07-23T12:48:17;5.88;;;5.13;;
42600;SDS011;28229;48.856;9.088;2022-07-23T12:51:35;5.32;;;4.93;;
42600;SDS011;28229;48.856;9.088;2022-07-23T12:56:18;5.20;;;4.80;;
42600;SDS011;28229;48.856;9.088;2022-07-23T12:58:54;6.00;;;4.93;;
42600;SDS011;28229;48.856;9.088;2022-07-23T13:01:26;5.63;;;5.13;;
42600;SDS011;28229;48.856;9.088;2022-07-23T13:04:06;5.93;;;5.43;;
42600;SDS011;28229;48.856;9.088;2022-07-23T13:06:37;6.35;;;5.65;;
42600;SDS011;28229;48.856;9.088;2022-07-23T13:09:24;6.93;;;6.32;;
42600;SDS011;28229;48.856;9.088;2022-07-23T13:11:53;6.82;;;6.25;;
42600;SDS011;28229;48.856;9.088;2022-07-23T13:14:20;7.43;;;6.13;;
42600;SDS011;28229;48.856;9.088;2022-07-23T13:16:47;6.70;;;6.10;;
42600;SDS011;28229;48.856;9.088;2022-07-23T13:19:14;6.72;;;6.22;;
42600;SDS011;28229;48.856;9.088;2022-07-23T13:21:41;6.25;;;5.75;;
42600;SDS011;28229;48.856;9.088;2022-07-23T13:24:07;8.10;;;7.40;;
42600;SDS011;28229;48.856;9.088;2022-07-23T13:26:36;6.93;;;6.40;;
42600;SDS011;28229;48.856;9.088;2022-07-23T13:29:06;7.03;;;6.53;;
42600;SDS011;28229;48.856;9.088;2022-07-23T13:31:32;6.88;;;6.38;;
42600;SDS011;28229;48.856;9.088;2022-07-23T13:33:58;6.80;;;6.30;;
42600;SDS011;28229;48.856;9.088;2022-07-23T13:36:24;6.72;;;6.22;;
42600;SDS011;28229;48.856;9.088;2022-07-23T13:38:50;5.97;;;5.57;;
42600;SDS011;28229;48.856;9.088;2022-07-23T13:41:16;6.07;;;5.68;;
42600;SDS011;28229;48.856;9.088;2022-07-23T13:43:43;6.35;;;5.75;;
42600;SDS011;28229;48.856;9.088;2022-07-23T13:46:09;6.65;;;6.00;;
42600;SDS011;28229;48.856;9.088;2022-07-23T13:48:35;6.50;;;6.00;;
42600;SDS011;28229;48.856;9.088;2022-07-23T13:51:01;6.45;;;5.95;;
42600;SDS011;28229;48.856;9.088;2022-07-23T13:53:28;6.30;;;5.90;;
42600;SDS011;28229;48.856;9.088;2022-07-23T13:55:53;6.32;;;5.82;;
42600;SDS011;28229;48.856;9.088;2022-07-23T13:58:20;6.32;;;5.82;;
42600;SDS011;28229;48.856;9.088;2022-07-23T14:00:48;6.10;;;5.60;;
42600;SDS011;28229;48.856;9.088;2022-07-23T14:03:15;5.82;;;5.43;;
42600;SDS011;28229;48.856;9.088;2022-07-23T14:05:42;6.88;;;6.18;;
42600;SDS011;28229;48.856;9.088;2022-07-23T14:08:08;6.03;;;5.53;;
42600;SDS011;28229;48.856;9.088;2022-07-23T14:10:34;5.85;;;5.35;;
42600;SDS011;28229;48.856;9.088;2022-07-23T14:13:00;6.15;;;5.65;;
42600;SDS011;28229;48.856;9.088;2022-07-23T14:15:27;6.18;;;5.78;;
42600;SDS011;28229;48.856;9.088;2022-07-23T14:17:55;5.88;;;5.38;;
42600;SDS011;28229;48.856;9.088;2022-07-23T14:20:21;6.22;;;5.72;;
42600;SDS011;28229;48.856;9.088;2022-07-23T14:22:48;5.95;;;5.55;;
42600;SDS011;28229;48.856;9.088;2022-07-23T14:25:15;5.80;;;5.30;;
42600;SDS011;28229;48.856;9.088;2022-07-23T14:27:42;5.80;;;5.30;;
42600;SDS011;28229;48.856;9.088;2022-07-23T14:30:09;5.75;;;5.15;;
42600;SDS011;28229;48.856;9.088;2022-07-23T14:32:35;5.88;;;5.47;;
42600;SDS011;28229;48.856;9.088;2022-07-23T14:35:02;6.10;;;5.60;;
42600;SDS011;28229;48.856;9.088;2022-07-23T14:37:30;6.03;;;5.53;;
42600;SDS011;28229;48.856;9.088;2022-07-23T14:39:56;6.20;;;5.65;;
42600;SDS011;28229;48.856;9.088;2022-07-23T14:42:22;6.32;;;5.72;;
42600;SDS011;28229;48.856;9.088;2022-07-23T14:44:47;7.00;;;5.90;;
42600;SDS011;28229;48.856;9.088;2022-07-23T14:47:13;6.13;;;5.72;;
42600;SDS011;28229;48.856;9.088;2022-07-23T14:49:39;6.38;;;5.88;;
42600;SDS011;28229;48.856;9.088;2022-07-23T14:52:05;6.05;;;5.65;;
42600;SDS011;28229;48.856;9.088;2022-07-23T14:54:32;6.40;;;5.80;;
42600;SDS011;28229;48.856;9.088;2022-07-23T14:56:59;6.10;;;5.70;;
42600;SDS011;28229;48.856;9.088;2022-07-23T14:59:26;6.15;;;5.65;;
42600;SDS011;28229;48.856;9.088;2022-07-23T15:01:52;5.90;;;5.43;;
42600;SDS011;28229;48.856;9.088;2022-07-23T15:04:19;5.88;;;5.47;;
42600;SDS011;28229;48.856;9.088;2022-07-23T15:06:45;6.00;;;5.60;;
42600;SDS011;28229;48.856;9.088;2022-07-23T15:09:12;14.23;;;6.82;;
42600;SDS011;28229;48.856;9.088;2022-07-23T15:11:39;6.55;;;5.93;;
42600;SDS011;28229;48.856;9.088;2022-07-23T15:14:06;5.80;;;5.40;;
42600;SDS011;28229;48.856;9.088;2022-07-23T15:16:32;6.25;;;5.75;;
42600;SDS011;28229;48.856;9.088;2022-07-23T15:18:58;6.45;;;5.95;;
42600;SDS011;28229;48.856;9.088;2022-07-23T15:21:24;6.32;;;5.70;;
42600;SDS011;28229;48.856;9.088;2022-07-23T15:23:50;5.80;;;5.30;;
42600;SDS011;28229;48.856;9.088;2022-07-23T15:26:16;5.80;;;5.40;;
42600;SDS011;28229;48.856;9.088;2022-07-23T15:28:43;5.93;;;5.53;;
42600;SDS011;28229;48.856;9.088;2022-07-23T15:31:10;6.00;;;5.60;;
42600;SDS011;28229;48.856;9.088;2022-07-23T15:33:36;6.13;;;5.63;;
42600;SDS011;28229;48.856;9.088;2022-07-23T15:36:02;6.45;;;5.75;;
42600;SDS011;28229;48.856;9.088;2022-07-23T15:38:29;6.40;;;5.90;;
42600;SDS011;28229;48.856;9.088;2022-07-23T15:40:55;6.00;;;5.50;;
42600;SDS011;28229;48.856;9.088;2022-07-23T15:43:22;6.00;;;5.50;;
42600;SDS011;28229;48.856;9.088;2022-07-23T15:45:58;6.40;;;5.80;;